Airfield :
LOGIN :

Register | Disclaimer

   EN    FR    IT 

 










Legend :    VFR   Marginal VFR   IFR   Intensive IFR   Very Intensive IFR
Visi :
Ceiling :
>= 8 km
>= 3000ft
5 to 8 km
1000 to 3000 ft
1500m to 5 km
500 to 1000 ft
800 to 1500m
200 to 500 ft
< 800m
< 200 ft
Symbols :   Thunderstorms  Fog  Heavy snow  Heavy precipitations  Wind > 20 kt
SIGMETs :     Misc.  Thunderstorms  Icing  Turbulence  Mountain Waves  Volcanic Ashes







- Airport Elevation : 526 ft
- IATA code : LTN
- Download approach charts


EGGW - London Luton

CURRENT METAR :
  • 161350Z AUTO 36007G18KT 340V040 8000 BKN002 OVC006 15/14 Q1022

EXPIRED METARs :
  • 161320Z 36006KT 290V030 5000 -DZ OVC003 15/14 Q1022
  • 161250Z 36006KT 290V030 3200 -RA OVC003 15/14 Q1022
  • 161220Z 35005KT 280V040 4000 BR OVC004 15/15 Q1022
  • 161150Z 35006KT 320V030 9000 3900N OVC004 16/15 Q1022
  • 161120Z AUTO 33008KT 300V360 9999 BKN009 OVC014 16/14 Q1022

TAF TAF EGGW
Valid from the 16 at 12:00 until the 17 at 12:00 UTC


161100Z 1612/1712 01007KT 9999 BKN010
TEMPO 1612/1618 4000 -RADZ BR OVC003
PROB40
TEMPO 1612/1618 1200 DZ OVC001
BECMG 1618/1621 FEW020
TEMPO 1622/1706 8000
PROB30 1700/1705 4000 BR
ATIS : +44 1582 395 204
No reported NOTAMs for that airfield.



MET'MAP, your aeronautical weather chart ! - Copyright ORBIFLY December 2007 - Disclaimer

ORBIFLY MET'MAP TEAM :

Programming & Development : Alexandra Zaïnal
Concept & Development : Baudouin d'Aumeries
Co-Development & Prog : Marc-Olivier Méhu
Technical & hardware support : Manuel Goepfert

Contact : metmap@orbifly.com




SOURCES & CREDITS :

   NOAA